createdAt,value
2018-02-11T00:01:35.787Z,76.40
2018-02-11T00:04:10.708Z,77.10
2018-02-11T00:06:44.833Z,77.00
2018-02-11T00:09:19.362Z,77.30
2018-02-11T00:11:53.397Z,77.30
2018-02-11T00:14:28.007Z,77.70
2018-02-11T00:17:02.621Z,77.60
2018-02-11T00:19:36.636Z,77.60
2018-02-11T00:22:11.127Z,77.20
2018-02-11T00:24:44.996Z,75.90
2018-02-11T00:27:18.787Z,77.50
2018-02-11T00:29:52.687Z,78.10
2018-02-11T00:32:26.476Z,76.80
2018-02-11T00:35:00.230Z,75.60
2018-02-11T00:37:39.528Z,76.80
2018-02-11T00:40:13.635Z,75.00
2018-02-11T00:42:48.034Z,75.50
2018-02-11T00:45:22.999Z,77.30
2018-02-11T00:47:57.005Z,77.20
2018-02-11T00:50:30.734Z,77.50
2018-02-11T00:53:04.529Z,78.10
2018-02-11T00:55:38.251Z,78.30
2018-02-11T00:58:11.938Z,78.10
2018-02-11T01:00:46.647Z,78.30
2018-02-11T01:03:20.698Z,78.20
2018-02-11T01:05:54.527Z,77.20
2018-02-11T01:08:28.170Z,76.40
2018-02-11T01:11:01.816Z,77.50
2018-02-11T01:13:35.493Z,78.00
2018-02-11T01:16:09.264Z,75.30
2018-02-11T01:18:43.871Z,75.50
2018-02-11T01:21:18.737Z,74.00
2018-02-11T01:23:52.656Z,74.00
2018-02-11T01:26:26.570Z,76.40
2018-02-11T01:29:00.260Z,77.30
2018-02-11T01:31:33.944Z,75.70
2018-02-11T01:34:07.664Z,75.30
2018-02-11T01:36:41.475Z,76.20
2018-02-11T01:39:15.109Z,76.50
2018-02-11T01:41:49.850Z,77.10
2018-02-11T01:44:24.506Z,76.70
2018-02-11T01:46:58.548Z,76.60
2018-02-11T01:49:32.174Z,74.70
2018-02-11T01:52:05.871Z,76.10
2018-02-11T01:54:39.547Z,76.50
2018-02-11T01:57:13.445Z,77.70
2018-02-11T01:59:48.082Z,77.50
2018-02-11T02:02:22.604Z,77.70
2018-02-11T02:04:56.447Z,77.70
2018-02-11T02:07:30.406Z,76.90
2018-02-11T02:10:05.720Z,77.60
2018-02-11T02:12:40.785Z,77.80
2018-02-11T02:15:14.725Z,77.70
2018-02-11T02:17:48.382Z,78.40
2018-02-11T02:20:22.003Z,77.70
2018-02-11T02:22:56.507Z,78.40
2018-02-11T02:25:30.532Z,77.90
2018-02-11T02:28:04.319Z,78.40
2018-02-11T02:30:38.728Z,77.40
2018-02-11T02:33:12.804Z,77.40
2018-02-11T02:35:47.481Z,78.10
2018-02-11T02:38:22.010Z,78.10
2018-02-11T02:40:56.598Z,77.50
2018-02-11T02:43:30.632Z,77.40
2018-02-11T02:46:05.123Z,77.70
2018-02-11T02:48:39.108Z,77.70
2018-02-11T02:51:12.807Z,77.00
2018-02-11T02:53:48.152Z,77.10
2018-02-11T02:56:23.005Z,76.90
2018-02-11T02:58:57.073Z,76.90
2018-02-11T03:01:30.808Z,77.00
2018-02-11T03:04:04.593Z,77.30
2018-02-11T03:06:38.279Z,76.60
2018-02-11T03:09:12.159Z,76.40
2018-02-11T03:11:46.864Z,76.70
2018-02-11T03:14:21.314Z,76.00
2018-02-11T03:16:55.343Z,75.60
2018-02-11T03:19:29.287Z,76.60
2018-02-11T03:22:02.935Z,76.60
2018-02-11T03:24:36.912Z,76.40
2018-02-11T03:27:10.624Z,76.00
2018-02-11T03:29:45.177Z,76.50
2018-02-11T03:32:19.095Z,76.50
2018-02-11T03:34:53.622Z,75.00
2018-02-11T03:37:27.631Z,75.00
2018-02-11T03:40:01.485Z,75.40
2018-02-11T03:42:36.056Z,76.00
2018-02-11T03:45:11.520Z,75.30
2018-02-11T03:47:45.357Z,75.30
2018-02-11T03:50:19.124Z,76.20
2018-02-11T03:52:53.639Z,75.30
2018-02-11T03:55:27.558Z,75.50
2018-02-11T03:58:01.187Z,75.50
2018-02-11T04:00:34.974Z,75.80
2018-02-11T04:03:09.667Z,75.40
2018-02-11T04:05:43.541Z,74.90
2018-02-11T04:08:18.129Z,75.90
2018-02-11T04:10:52.029Z,75.90
2018-02-11T04:13:25.662Z,75.30
2018-02-11T04:15:59.463Z,75.60
2018-02-11T04:18:33.070Z,76.70
2018-02-11T04:21:06.860Z,74.90
2018-02-11T04:23:41.836Z,75.50
2018-02-11T04:26:16.477Z,75.50
2018-02-11T04:28:50.115Z,75.20
2018-02-11T04:31:24.707Z,75.40
2018-02-11T04:33:58.523Z,75.30
2018-02-11T04:36:33.136Z,75.60
2018-02-11T04:39:07.746Z,75.50
2018-02-11T04:41:41.854Z,75.50
2018-02-11T04:44:16.415Z,75.80
2018-02-11T04:46:50.920Z,75.70
2018-02-11T04:49:24.938Z,75.70
2018-02-11T04:51:59.548Z,74.70
2018-02-11T04:54:33.657Z,74.60
2018-02-11T04:57:07.571Z,74.40
2018-02-11T04:59:42.970Z,73.40
2018-02-11T05:02:16.932Z,73.30
2018-02-11T05:04:50.768Z,73.80
2018-02-11T05:07:25.496Z,74.20
2018-02-11T05:09:59.125Z,73.40
2018-02-11T05:12:33.903Z,72.30
2018-02-11T05:15:07.866Z,72.30
2018-02-11T05:17:41.755Z,71.00
2018-02-11T05:20:15.400Z,72.50
2018-02-11T05:22:50.195Z,72.00
2018-02-11T05:25:25.435Z,72.10
2018-02-11T05:27:59.893Z,72.20
2018-02-11T05:30:33.635Z,71.40
2018-02-11T05:33:08.222Z,73.90
2018-02-11T05:35:42.087Z,73.90
2018-02-11T05:38:16.660Z,72.70
2018-02-11T05:40:50.768Z,72.60
2018-02-11T05:43:24.711Z,72.60
2018-02-11T05:45:58.458Z,73.30
2018-02-11T05:48:32.224Z,73.00
2018-02-11T05:51:05.956Z,72.00
2018-02-11T05:53:40.519Z,72.50
2018-02-11T05:56:15.190Z,73.90
2018-02-11T05:58:49.178Z,73.20
2018-02-11T06:01:23.134Z,73.40
2018-02-11T06:03:57.726Z,73.50
2018-02-11T06:06:31.698Z,73.50
2018-02-11T06:09:05.538Z,72.90
2018-02-11T06:11:39.403Z,73.40
2018-02-11T06:14:13.961Z,73.80
2018-02-11T06:16:47.731Z,72.90
2018-02-11T06:19:21.765Z,72.80
2018-02-11T06:21:57.030Z,73.00
2018-02-11T06:24:31.018Z,72.10
2018-02-11T06:27:04.772Z,73.00
2018-02-11T06:29:39.457Z,72.80
2018-02-11T06:32:13.080Z,73.30
2018-02-11T06:34:46.854Z,74.80
2018-02-11T06:37:20.631Z,76.90
2018-02-11T06:39:55.252Z,77.50
2018-02-11T06:42:29.223Z,77.40
2018-02-11T06:45:03.057Z,76.30
2018-02-11T06:47:37.546Z,76.00
2018-02-11T06:50:11.801Z,76.00
2018-02-11T06:52:45.733Z,77.00
2018-02-11T06:55:19.411Z,76.00
2018-02-11T06:57:53.218Z,76.20
2018-02-11T07:00:27.116Z,75.50
2018-02-11T07:03:01.609Z,75.60
2018-02-11T07:05:35.573Z,75.50
2018-02-11T07:08:09.207Z,75.30
2018-02-11T07:10:42.988Z,74.70
2018-02-11T07:13:18.366Z,74.40
2018-02-11T07:15:52.581Z,74.30
2018-02-11T07:18:26.413Z,74.20
2018-02-11T07:21:01.038Z,73.40
2018-02-11T07:23:34.838Z,73.20
2018-02-11T07:26:09.475Z,73.40
2018-02-11T07:28:43.598Z,73.30
2018-02-11T07:31:17.478Z,72.60
2018-02-11T07:33:52.091Z,71.80
2018-02-11T07:36:26.845Z,70.50
2018-02-11T07:39:01.858Z,69.70
2018-02-11T07:41:35.825Z,70.20
2018-02-11T07:44:09.575Z,69.30
2018-02-11T07:46:45.051Z,69.70
2018-02-11T07:49:19.040Z,69.60
2018-02-11T07:51:53.673Z,71.50
2018-02-11T07:54:27.595Z,70.60
2018-02-11T07:57:01.428Z,70.00
2018-02-11T07:59:35.591Z,70.90
2018-02-11T08:02:10.215Z,69.90
2018-02-11T08:04:43.898Z,70.70
2018-02-11T08:07:18.456Z,70.60
2018-02-11T08:09:52.312Z,70.60
2018-02-11T08:12:26.048Z,70.50
2018-02-11T08:15:00.567Z,70.40
2018-02-11T08:17:35.420Z,71.30
2018-02-11T08:20:09.436Z,71.30
2018-02-11T08:22:43.242Z,70.00
2018-02-11T08:25:16.950Z,70.30
2018-02-11T08:27:50.682Z,70.60
2018-02-11T08:30:24.668Z,76.40
2018-02-11T08:32:58.491Z,74.20
2018-02-11T08:35:32.260Z,73.20
2018-02-11T08:38:06.907Z,73.80
2018-02-11T08:40:40.807Z,73.00
2018-02-11T08:43:14.827Z,73.20
2018-02-11T08:45:48.572Z,74.00
2018-02-11T08:48:22.554Z,74.20
2018-02-11T08:50:57.744Z,75.80
2018-02-11T08:53:32.591Z,75.90
2018-02-11T08:56:06.461Z,75.90
2018-02-11T08:58:40.238Z,75.70
2018-02-11T09:01:13.838Z,75.50
2018-02-11T09:03:48.512Z,75.50
2018-02-11T09:06:22.496Z,75.50
2018-02-11T09:08:56.413Z,75.90
2018-02-11T09:11:30.947Z,75.80
2018-02-11T09:14:05.223Z,75.80
2018-02-11T09:16:38.995Z,76.40
2018-02-11T09:19:13.506Z,77.40
2018-02-11T09:21:47.486Z,77.40
2018-02-11T09:24:22.909Z,76.80
2018-02-11T09:26:56.826Z,76.80
2018-02-11T09:29:32.307Z,76.90
2018-02-11T09:32:06.314Z,76.90
2018-02-11T09:34:40.946Z,76.50
2018-02-11T09:37:14.871Z,76.40
2018-02-11T09:39:48.794Z,77.10
2018-02-11T09:42:23.260Z,77.30
2018-02-11T09:44:57.250Z,77.30
2018-02-11T09:47:30.902Z,78.00
2018-02-11T09:50:04.710Z,78.20
2018-02-11T09:52:39.091Z,78.90
2018-02-11T09:55:13.017Z,78.90
2018-02-11T09:57:46.719Z,79.60
2018-02-11T10:00:20.519Z,78.20
2018-02-11T10:02:54.935Z,79.00
2018-02-11T10:05:28.984Z,79.00
2018-02-11T10:08:02.695Z,78.90
2018-02-11T10:10:36.584Z,79.10
2018-02-11T10:13:11.183Z,79.20
2018-02-11T10:15:45.813Z,78.80
2018-02-11T10:18:20.669Z,79.00
2018-02-11T10:20:55.361Z,80.10
2018-02-11T10:23:29.590Z,79.50
2018-02-11T10:26:03.235Z,79.10
2018-02-11T10:28:37.092Z,79.20
2018-02-11T10:31:10.791Z,79.70
2018-02-11T10:33:44.633Z,80.10
2018-02-11T10:36:18.351Z,79.90
2018-02-11T10:38:52.051Z,80.20
2018-02-11T10:41:26.634Z,79.90
2018-02-11T10:44:00.749Z,79.90
2018-02-11T10:46:34.700Z,79.40
2018-02-11T10:49:09.256Z,80.70
2018-02-11T10:51:43.358Z,80.00
2018-02-11T10:54:17.018Z,79.50
2018-02-11T10:56:50.813Z,80.40
2018-02-11T10:59:24.616Z,81.00
2018-02-11T11:01:58.589Z,79.90
2018-02-11T11:04:33.149Z,80.60
2018-02-11T11:07:07.915Z,80.40
2018-02-11T11:09:41.655Z,81.20
2018-02-11T11:12:16.349Z,81.70
2018-02-11T11:14:50.019Z,81.10
2018-02-11T11:17:24.786Z,81.00
2018-02-11T11:19:58.520Z,80.40
2018-02-11T11:22:33.117Z,80.90
2018-02-11T11:25:07.551Z,80.60
2018-02-11T11:27:41.704Z,80.50
2018-02-11T11:30:15.492Z,80.70
2018-02-11T11:32:49.347Z,80.40
2018-02-11T11:35:23.221Z,80.70
2018-02-11T11:37:57.745Z,80.80
2018-02-11T11:40:31.659Z,80.70
2018-02-11T11:43:05.516Z,81.40
2018-02-11T11:45:40.482Z,81.20
2018-02-11T11:48:14.954Z,81.40
2018-02-11T11:50:49.641Z,81.40
2018-02-11T11:53:24.376Z,81.30
2018-02-11T11:55:58.849Z,80.80
2018-02-11T11:58:32.931Z,80.80
2018-02-11T12:01:07.414Z,80.40
2018-02-11T12:03:41.463Z,80.40
2018-02-11T12:06:15.250Z,80.90
2018-02-11T12:08:49.147Z,80.60
2018-02-11T12:11:22.865Z,80.90
2018-02-11T12:13:56.795Z,81.00
2018-02-11T12:16:30.620Z,80.90
2018-02-11T12:19:04.455Z,81.20
2018-02-11T12:21:38.245Z,80.40
2018-02-11T12:24:12.825Z,80.20
2018-02-11T12:26:46.650Z,80.10
2018-02-11T12:29:20.402Z,80.00
2018-02-11T12:31:54.945Z,80.60
2018-02-11T12:34:28.852Z,79.90
2018-02-11T12:37:03.540Z,79.80
2018-02-11T12:39:37.533Z,79.30
2018-02-11T12:42:11.127Z,79.70
2018-02-11T12:44:44.913Z,79.20
2018-02-11T12:47:19.502Z,79.90
2018-02-11T12:49:53.212Z,80.20
2018-02-11T12:52:28.596Z,80.20
2018-02-11T12:55:02.830Z,80.00
2018-02-11T12:57:37.383Z,80.30
2018-02-11T13:00:11.119Z,80.50
2018-02-11T13:02:44.878Z,80.70
2018-02-11T13:05:18.626Z,80.60
2018-02-11T13:07:52.359Z,80.40
2018-02-11T13:10:26.242Z,80.90
2018-02-11T13:12:59.927Z,80.50
2018-02-11T13:15:33.846Z,81.00
2018-02-11T13:18:07.689Z,80.10
2018-02-11T13:20:41.567Z,79.60
2018-02-11T13:23:15.359Z,79.70
2018-02-11T13:25:49.198Z,79.60
2018-02-11T13:28:22.952Z,79.90
2018-02-11T13:30:58.372Z,79.80
2018-02-11T13:33:32.314Z,79.70
2018-02-11T13:36:06.813Z,79.60
2018-02-11T13:38:40.851Z,79.60
2018-02-11T13:41:14.830Z,79.10
2018-02-11T13:43:50.143Z,79.60
2018-02-11T13:46:24.180Z,79.50
2018-02-11T13:48:58.821Z,79.50
2018-02-11T13:51:33.533Z,79.90
2018-02-11T13:54:07.439Z,79.50
2018-02-11T13:56:42.890Z,78.70
2018-02-11T13:59:16.845Z,79.10
2018-02-11T14:01:50.625Z,79.60
2018-02-11T14:04:24.332Z,79.40
2018-02-11T14:06:58.967Z,79.30
2018-02-11T14:09:33.599Z,80.70
2018-02-11T14:12:07.557Z,80.70
2018-02-11T14:14:42.971Z,82.50
2018-02-11T14:17:16.958Z,82.40
2018-02-11T14:19:50.762Z,81.90
2018-02-11T14:22:24.544Z,81.70
2018-02-11T14:24:58.262Z,81.70
2018-02-11T14:27:32.132Z,81.00
2018-02-11T14:30:05.947Z,81.20
2018-02-11T14:32:40.642Z,81.30
2018-02-11T14:35:15.294Z,80.60
2018-02-11T14:37:50.753Z,80.70
2018-02-11T14:40:24.762Z,80.70
2018-02-11T14:42:58.717Z,80.80
2018-02-11T14:45:32.367Z,80.90
2018-02-11T14:48:06.314Z,80.90
2018-02-11T14:50:40.918Z,81.40
2018-02-11T14:53:14.843Z,80.90
2018-02-11T14:55:48.507Z,81.30
2018-02-11T14:58:22.202Z,80.70
2018-02-11T15:00:55.945Z,80.90
2018-02-11T15:03:29.663Z,82.50
2018-02-11T15:06:03.409Z,82.30
2018-02-11T15:08:38.068Z,82.60
2018-02-11T15:11:12.047Z,82.20
2018-02-11T15:13:45.907Z,82.00
2018-02-11T15:16:20.559Z,82.70
2018-02-11T15:18:54.283Z,82.70
2018-02-11T15:21:28.104Z,82.30
2018-02-11T15:24:01.927Z,82.10
2018-02-11T15:26:35.787Z,81.60
2018-02-11T15:29:10.429Z,81.60
2018-02-11T15:31:44.476Z,81.60
2018-02-11T15:34:18.337Z,81.50
2018-02-11T15:36:52.099Z,81.80
2018-02-11T15:39:25.917Z,81.30
2018-02-11T15:41:59.820Z,81.20
2018-02-11T15:44:34.307Z,80.80
2018-02-11T15:47:08.495Z,80.80
2018-02-11T15:49:44.088Z,80.90
2018-02-11T15:52:18.647Z,80.70
2018-02-11T15:54:53.419Z,80.70
2018-02-11T15:57:27.537Z,80.70
2018-02-11T16:00:01.377Z,80.40
2018-02-11T16:02:35.936Z,80.40
2018-02-11T16:05:10.107Z,80.30
2018-02-11T16:07:43.763Z,80.30
2018-02-11T16:10:17.428Z,80.20
2018-02-11T16:12:51.213Z,79.90
2018-02-11T16:15:26.638Z,80.30
2018-02-11T16:18:00.511Z,80.10
2018-02-11T16:20:34.314Z,80.00
2018-02-11T16:23:08.050Z,80.40
2018-02-11T16:25:42.570Z,80.20
2018-02-11T16:28:16.427Z,80.20
2018-02-11T16:30:51.572Z,80.70
2018-02-11T16:33:26.063Z,79.90
2018-02-11T16:36:07.321Z,79.60
2018-02-11T16:38:41.458Z,79.90
2018-02-11T16:41:16.135Z,79.60
2018-02-11T16:43:50.369Z,79.60
2018-02-11T16:46:24.560Z,79.70
2018-02-11T16:48:59.997Z,80.40
2018-02-11T16:51:35.057Z,79.80
2018-02-11T16:54:09.317Z,79.80
2018-02-11T16:56:43.377Z,79.50
2018-02-11T16:59:18.395Z,79.00
2018-02-11T17:01:52.470Z,79.00
2018-02-11T17:04:27.468Z,79.10
2018-02-11T17:07:01.762Z,79.00
2018-02-11T17:09:35.972Z,79.40
2018-02-11T17:12:10.656Z,80.40
2018-02-11T17:14:45.599Z,80.40
2018-02-11T17:17:19.376Z,80.40
2018-02-11T17:19:55.965Z,80.70
2018-02-11T17:22:31.100Z,80.80
2018-02-11T17:25:06.557Z,80.50
2018-02-11T17:27:41.204Z,80.70
2018-02-11T17:30:15.883Z,80.60
2018-02-11T17:32:50.585Z,80.90
2018-02-11T17:35:24.552Z,80.70
2018-02-11T17:37:58.428Z,80.60
2018-02-11T17:40:33.273Z,80.90
2018-02-11T17:43:07.883Z,80.80
2018-02-11T17:45:42.739Z,80.90
2018-02-11T17:48:18.031Z,81.40
2018-02-11T17:50:53.236Z,80.40
2018-02-11T17:53:28.481Z,81.70
2018-02-11T17:56:02.795Z,80.70
2018-02-11T17:58:37.430Z,80.70
2018-02-11T18:01:11.516Z,80.60
2018-02-11T18:03:45.247Z,80.00
2018-02-11T18:06:19.166Z,80.40
2018-02-11T18:08:54.064Z,80.40
2018-02-11T18:11:28.807Z,80.40
2018-02-11T18:14:02.843Z,80.40
2018-02-11T18:16:37.245Z,80.40
2018-02-11T18:19:12.287Z,80.00
2018-02-11T18:21:46.996Z,80.70
2018-02-11T18:24:21.095Z,80.30
2018-02-11T18:26:55.643Z,80.30
2018-02-11T18:29:30.175Z,80.10
2018-02-11T18:32:04.181Z,80.10
2018-02-11T18:34:38.040Z,80.20
2018-02-11T18:37:11.651Z,80.20
2018-02-11T18:39:45.338Z,80.10
2018-02-11T18:42:18.945Z,80.00
2018-02-11T18:44:52.668Z,79.90
2018-02-11T18:47:27.196Z,79.50
2018-02-11T18:50:01.117Z,79.20
2018-02-11T18:52:35.163Z,79.60
2018-02-11T18:55:09.767Z,79.70
2018-02-11T18:57:43.785Z,79.70
2018-02-11T19:00:17.771Z,79.80
2018-02-11T19:02:52.377Z,80.00
2018-02-11T19:05:26.679Z,80.00
2018-02-11T19:08:00.537Z,80.10
2018-02-11T19:10:34.691Z,79.70
2018-02-11T19:13:08.879Z,79.90
2018-02-11T19:15:42.981Z,79.80
2018-02-11T19:18:16.973Z,79.70
2018-02-11T19:20:50.787Z,79.60
2018-02-11T19:23:25.307Z,79.40
2018-02-11T19:25:59.366Z,79.30
2018-02-11T19:28:33.147Z,79.30
2018-02-11T19:31:06.863Z,79.10
2018-02-11T19:33:40.585Z,79.10
2018-02-11T19:36:14.290Z,79.10
2018-02-11T19:38:48.850Z,79.10
2018-02-11T19:41:24.193Z,79.20
2018-02-11T19:43:58.139Z,79.20
2018-02-11T19:46:32.636Z,79.10
2018-02-11T19:49:07.351Z,78.90
2018-02-11T19:51:41.466Z,78.90
2018-02-11T19:54:16.253Z,78.50
2018-02-11T19:56:50.103Z,78.60
2018-02-11T19:59:23.936Z,78.40
2018-02-11T20:01:57.799Z,78.00
2018-02-11T20:04:31.623Z,77.80
2018-02-11T20:07:05.505Z,77.80
2018-02-11T20:09:39.277Z,77.50
2018-02-11T20:12:13.185Z,77.50
2018-02-11T20:14:47.051Z,77.40
2018-02-11T20:17:20.904Z,77.10
2018-02-11T20:19:54.777Z,77.00
2018-02-11T20:22:28.638Z,77.10
2018-02-11T20:25:02.481Z,77.30
2018-02-11T20:27:36.303Z,76.50
2018-02-11T20:30:10.195Z,76.60
2018-02-11T20:32:43.879Z,76.80
2018-02-11T20:35:18.481Z,76.90
2018-02-11T20:37:53.039Z,76.90
2018-02-11T20:40:27.182Z,76.90
2018-02-11T20:43:01.707Z,77.60
2018-02-11T20:45:35.679Z,76.60
2018-02-11T20:48:09.442Z,76.70
2018-02-11T20:50:43.159Z,76.50
2018-02-11T20:53:16.878Z,76.90
2018-02-11T20:55:51.505Z,77.30
2018-02-11T20:58:26.199Z,76.70
2018-02-11T21:01:01.533Z,76.60
2018-02-11T21:03:36.410Z,76.50
2018-02-11T21:06:10.292Z,76.30
2018-02-11T21:08:45.010Z,76.20
2018-02-11T21:11:18.924Z,76.00
2018-02-11T21:13:52.817Z,75.70
2018-02-11T21:16:26.514Z,75.60
2018-02-11T21:19:01.222Z,75.40
2018-02-11T21:21:35.176Z,75.40
2018-02-11T21:24:09.088Z,75.00
2018-02-11T21:26:43.615Z,75.00
2018-02-11T21:29:17.534Z,74.90
2018-02-11T21:31:52.235Z,75.60
2018-02-11T21:34:26.325Z,75.60
2018-02-11T21:37:00.476Z,75.90
2018-02-11T21:39:34.287Z,75.50
2018-02-11T21:42:08.796Z,75.70
2018-02-11T21:44:42.891Z,75.60
2018-02-11T21:47:17.667Z,75.60
2018-02-11T21:49:52.303Z,75.60
2018-02-11T21:52:26.558Z,75.70
2018-02-11T21:55:01.053Z,75.60
2018-02-11T21:57:35.532Z,75.70
2018-02-11T22:00:09.883Z,75.70
2018-02-11T22:02:44.441Z,75.50
2018-02-11T22:05:18.827Z,76.10
2018-02-11T22:07:52.918Z,75.40
2018-02-11T22:10:26.774Z,76.70
2018-02-11T22:13:00.504Z,78.80
2018-02-11T22:15:34.427Z,79.50
2018-02-11T22:18:08.141Z,79.50
2018-02-11T22:20:42.782Z,81.00
2018-02-11T22:23:17.890Z,81.00
2018-02-11T22:25:52.268Z,81.10
2018-02-11T22:28:26.114Z,80.80
2018-02-11T22:31:01.684Z,81.50
2018-02-11T22:33:35.699Z,81.40
2018-02-11T22:36:10.322Z,81.70
2018-02-11T22:38:44.483Z,81.50
2018-02-11T22:41:18.524Z,80.80
2018-02-11T22:43:52.245Z,80.30
2018-02-11T22:46:26.153Z,80.40
2018-02-11T22:49:00.231Z,80.00
2018-02-11T22:51:34.925Z,80.00
2018-02-11T22:54:09.694Z,80.70
2018-02-11T22:56:44.860Z,81.60
2018-02-11T22:59:20.587Z,81.60
2018-02-11T23:01:54.856Z,81.60
2018-02-11T23:04:28.600Z,81.70
2018-02-11T23:07:02.461Z,81.70
2018-02-11T23:09:36.196Z,81.70
2018-02-11T23:12:09.979Z,81.30
2018-02-11T23:14:44.723Z,81.70
2018-02-11T23:17:19.416Z,81.70
2018-02-11T23:19:53.143Z,81.20
2018-02-11T23:22:27.709Z,81.50
2018-02-11T23:25:01.728Z,81.50
2018-02-11T23:27:35.600Z,81.70
2018-02-11T23:30:10.347Z,81.90
2018-02-11T23:32:44.731Z,82.10
2018-02-11T23:35:18.652Z,82.20
2018-02-11T23:37:53.109Z,82.30
2018-02-11T23:40:26.970Z,82.10
2018-02-11T23:43:00.884Z,81.10
2018-02-11T23:45:34.729Z,80.70
2018-02-11T23:48:08.632Z,79.50
2018-02-11T23:50:42.470Z,80.40
2018-02-11T23:53:17.176Z,79.80
2018-02-11T23:55:51.177Z,79.80
2018-02-11T23:58:25.234Z,79.60
